Time;durP1;ratioP1;P1;durP2;ratioP2;P2;SDS_P1;SDS_P2;PMS_P1;PMS_P2;Temp;Humidity;BMP_temperature;BMP_pressure;BME280_temperature;BME280_humidity;BME280_pressure;Samples;Min_cycle;Max_cycle;Signal;HPM_P1;HPM_P2
2024/01/07 00:02:12;;;;;;;;;;;11.70;99.90;;;;;;5092230;28;19966;-84
2024/01/07 00:04:38;;;;;;;;;;;11.60;99.90;;;;;;5092246;28;20401;-84
2024/01/07 00:07:05;;;;;;;;;;;11.60;99.90;;;;;;5092471;28;19916;-83
2024/01/07 00:09:31;;;;;;;;;;;11.60;99.90;;;;;;5090514;28;20328;-84
2024/01/07 00:11:57;;;;;;;;;;;11.50;99.90;;;;;;5092489;28;19908;-84
2024/01/07 00:14:24;;;;;;;;;;;11.50;99.90;;;;;;5090307;28;19918;-83
2024/01/07 00:16:50;;;;;;;;;;;11.40;99.90;;;;;;5091958;28;19923;-84
2024/01/07 00:19:16;;;;;;;;;;;11.40;99.90;;;;;;5092287;28;19916;-84
2024/01/07 00:21:42;;;;;;;;;;;11.40;99.90;;;;;;5091740;28;19908;-84
2024/01/07 00:24:08;;;;;;;;;;;11.50;99.90;;;;;;5091930;28;20237;-83
2024/01/07 00:26:34;;;;;;;;;;;11.50;99.90;;;;;;5090309;28;19966;-84
2024/01/07 00:29:00;;;;;;;;;;;11.60;99.90;;;;;;5091846;28;19955;-84
2024/01/07 00:31:26;;;;;;;;;;;11.60;99.90;;;;;;5091523;28;19912;-82
2024/01/07 00:33:51;;;;;;;;;;;11.60;99.90;;;;;;5091591;28;19908;-84
2024/01/07 00:36:17;;;;;;;;;;;11.60;99.90;;;;;;5092034;28;20213;-84
2024/01/07 00:38:46;;;;;;;;;;;11.50;99.90;;;;;;5091417;28;19969;-84
2024/01/07 00:41:12;;;;;;;;;;;11.50;99.90;;;;;;5091778;28;19908;-84
2024/01/07 00:43:38;;;;;;;;;;;11.50;99.90;;;;;;5091669;28;19912;-84
2024/01/07 00:46:04;;;;;;;;;;;11.50;99.90;;;;;;5095090;28;19931;-84
2024/01/07 00:48:30;;;;;;;;;;;11.50;99.90;;;;;;5107247;28;20080;-79
2024/01/07 00:50:55;;;;;;;;;;;11.50;99.90;;;;;;5093171;28;19959;-83
2024/01/07 00:53:21;;;;;;;;;;;11.50;99.90;;;;;;5091962;28;19909;-84
2024/01/07 00:55:47;;;;;;;;;;;11.50;99.90;;;;;;5090783;28;19935;-83
2024/01/07 00:58:13;;;;;;;;;;;11.50;99.90;;;;;;5091575;28;20055;-84
2024/01/07 01:00:42;;;;;;;;;;;11.60;99.90;;;;;;5091690;28;20314;-83
2024/01/07 01:03:08;;;;;;;;;;;11.60;99.90;;;;;;5091596;28;19916;-84
2024/01/07 01:05:34;;;;;;;;;;;11.60;99.90;;;;;;5089658;28;20094;-84
2024/01/07 01:08:00;;;;;;;;;;;11.60;99.90;;;;;;5090024;28;19908;-84
2024/01/07 01:10:25;;;;;;;;;;;11.70;99.90;;;;;;5089815;28;19919;-84
2024/01/07 01:12:54;;;;;;;;;;;11.70;99.90;;;;;;5091142;28;20363;-85
2024/01/07 01:15:20;;;;;;;;;;;11.70;99.90;;;;;;5089584;28;20054;-84
2024/01/07 01:17:46;;;;;;;;;;;11.70;99.90;;;;;;5089811;28;19920;-83
2024/01/07 01:20:11;;;;;;;;;;;11.80;99.90;;;;;;5091507;28;20051;-84
2024/01/07 01:22:37;;;;;;;;;;;11.80;99.90;;;;;;5091384;28;19927;-84
2024/01/07 01:25:04;;;;;;;;;;;11.80;99.90;;;;;;5089280;28;19985;-83
2024/01/07 01:27:29;;;;;;;;;;;11.80;99.90;;;;;;5090118;28;20340;-83
2024/01/07 01:29:55;;;;;;;;;;;11.80;99.90;;;;;;5089300;28;20105;-83
2024/01/07 01:32:21;;;;;;;;;;;11.80;99.90;;;;;;5090897;28;20252;-83
2024/01/07 01:34:47;;;;;;;;;;;11.90;99.90;;;;;;5090692;28;19973;-83
2024/01/07 01:37:13;;;;;;;;;;;11.90;99.90;;;;;;5090724;28;19916;-83
2024/01/07 01:39:41;;;;;;;;;;;11.90;99.90;;;;;;5089652;28;20207;-83
2024/01/07 01:42:07;;;;;;;;;;;11.90;99.90;;;;;;5090562;28;20348;-83
2024/01/07 01:44:34;;;;;;;;;;;11.90;99.90;;;;;;5088695;28;19912;-83
2024/01/07 01:47:00;;;;;;;;;;;11.90;99.90;;;;;;5090487;28;19934;-83
2024/01/07 01:49:27;;;;;;;;;;;11.90;99.90;;;;;;5090827;28;19912;-82
2024/01/07 01:51:53;;;;;;;;;;;11.90;99.90;;;;;;5090410;28;20027;-83
2024/01/07 01:54:20;;;;;;;;;;;12.00;99.90;;;;;;5089010;28;20309;-83
2024/01/07 01:56:47;;;;;;;;;;;12.00;99.90;;;;;;5090522;28;19966;-83
2024/01/07 01:59:14;;;;;;;;;;;11.90;99.90;;;;;;5088893;28;19912;-83
2024/01/07 02:01:49;;;;;;;;;;;11.90;99.90;;;;;;5090589;28;20248;-82
2024/01/07 02:04:15;;;;;;;;;;;11.90;99.90;;;;;;5089500;28;19944;-83
2024/01/07 02:06:41;;;;;;;;;;;11.90;99.90;;;;;;5090789;28;19952;-83
2024/01/07 02:09:07;;;;;;;;;;;11.80;99.90;;;;;;5088993;28;20356;-83
2024/01/07 02:11:33;;;;;;;;;;;11.70;99.90;;;;;;5088871;28;19995;-83
2024/01/07 02:14:00;;;;;;;;;;;11.70;99.90;;;;;;5090565;28;20011;-83
2024/01/07 02:16:25;;;;;;;;;;;11.70;99.90;;;;;;5089999;28;19908;-83
2024/01/07 02:18:51;;;;;;;;;;;11.70;99.90;;;;;;5093839;28;19934;-83
2024/01/07 02:21:17;;;;;;;;;;;11.70;99.90;;;;;;5093905;28;19908;-83
2024/01/07 02:23:43;;;;;;;;;;;11.70;99.90;;;;;;5093640;28;20005;-83
2024/01/07 02:26:09;;;;;;;;;;;11.60;99.90;;;;;;5091910;28;19908;-83
2024/01/07 02:28:35;;;;;;;;;;;11.70;99.90;;;;;;5093646;28;19969;-83
2024/01/07 02:31:01;;;;;;;;;;;11.70;99.90;;;;;;5091865;28;19908;-83
2024/01/07 02:33:27;;;;;;;;;;;11.70;99.90;;;;;;5093485;28;19908;-83
2024/01/07 02:35:53;;;;;;;;;;;11.70;99.90;;;;;;5092017;28;19931;-83
2024/01/07 02:38:19;;;;;;;;;;;11.70;99.90;;;;;;5093478;28;20308;-82
2024/01/07 02:40:46;;;;;;;;;;;11.70;99.90;;;;;;5093687;28;19947;-83
2024/01/07 02:43:11;;;;;;;;;;;11.70;99.90;;;;;;5093641;28;19915;-83
2024/01/07 02:45:37;;;;;;;;;;;11.70;99.90;;;;;;5091807;28;20240;-82
2024/01/07 02:48:03;;;;;;;;;;;11.70;99.90;;;;;;5094574;28;20364;-83
2024/01/07 02:50:29;;;;;;;;;;;11.60;99.90;;;;;;5092182;28;19908;-82
2024/01/07 02:52:55;;;;;;;;;;;11.70;99.90;;;;;;5091762;28;19912;-83
2024/01/07 02:55:21;;;;;;;;;;;11.70;99.90;;;;;;5093136;28;20429;-83
2024/01/07 02:57:48;;;;;;;;;;;11.70;99.90;;;;;;5091960;28;19920;-82
2024/01/07 03:00:14;;;;;;;;;;;11.70;99.90;;;;;;5093181;28;19908;-83
2024/01/07 03:02:39;;;;;;;;;;;11.70;99.90;;;;;;5092286;28;19915;-83
2024/01/07 03:05:05;;;;;;;;;;;11.70;99.90;;;;;;5091484;28;19983;-83
2024/01/07 03:07:31;;;;;;;;;;;11.70;99.90;;;;;;5093257;28;19912;-83
2024/01/07 03:09:57;;;;;;;;;;;11.60;99.90;;;;;;5093141;28;20368;-83
2024/01/07 03:12:23;;;;;;;;;;;11.60;99.90;;;;;;5092793;28;19908;-83
2024/01/07 03:14:49;;;;;;;;;;;11.60;99.90;;;;;;5092823;28;19915;-83
2024/01/07 03:17:17;;;;;;;;;;;11.60;99.90;;;;;;5092953;28;20229;-83
2024/01/07 03:19:42;;;;;;;;;;;11.60;99.90;;;;;;5093395;28;19908;-82
2024/01/07 03:22:08;;;;;;;;;;;11.70;99.90;;;;;;5092774;28;19927;-83
2024/01/07 03:24:34;;;;;;;;;;;11.60;99.90;;;;;;5092778;28;20058;-82
2024/01/07 03:27:00;;;;;;;;;;;11.60;99.90;;;;;;5092576;28;20049;-83
2024/01/07 03:29:26;;;;;;;;;;;11.70;99.90;;;;;;5092304;28;20244;-82
2024/01/07 03:31:52;;;;;;;;;;;11.60;99.90;;;;;;5092140;28;19908;-83
2024/01/07 03:34:19;;;;;;;;;;;11.70;99.90;;;;;;5092336;28;20006;-82
2024/01/07 03:36:45;;;;;;;;;;;11.80;99.90;;;;;;5092281;28;19962;-83
2024/01/07 03:39:11;;;;;;;;;;;11.70;99.90;;;;;;5092036;28;19920;-82
2024/01/07 03:41:37;;;;;;;;;;;11.70;99.90;;;;;;5092026;28;19920;-83
2024/01/07 03:44:03;;;;;;;;;;;11.70;99.90;;;;;;5092098;28;19956;-83
2024/01/07 03:46:28;;;;;;;;;;;11.70;99.90;;;;;;5090386;28;20230;-82
2024/01/07 03:48:54;;;;;;;;;;;11.60;99.90;;;;;;5090430;28;19931;-82
2024/01/07 03:51:20;;;;;;;;;;;11.60;99.90;;;;;;5092947;28;20345;-81
2024/01/07 03:53:46;;;;;;;;;;;11.60;99.90;;;;;;5091931;28;20321;-82
2024/01/07 03:56:12;;;;;;;;;;;11.60;99.90;;;;;;5091768;28;20026;-82
2024/01/07 03:58:37;;;;;;;;;;;11.60;99.90;;;;;;5090461;28;19991;-82
2024/01/07 04:01:03;;;;;;;;;;;11.60;99.90;;;;;;5091648;28;19966;-82
2024/01/07 04:03:29;;;;;;;;;;;11.60;99.90;;;;;;5091573;28;19908;-82
2024/01/07 04:05:55;;;;;;;;;;;11.60;99.90;;;;;;5090581;28;19916;-82
2024/01/07 04:08:21;;;;;;;;;;;11.70;99.90;;;;;;5090300;28;20355;-82
2024/01/07 04:10:47;;;;;;;;;;;11.70;99.90;;;;;;5090701;28;19916;-82
2024/01/07 04:13:13;;;;;;;;;;;11.70;99.90;;;;;;5091937;28;19915;-83
2024/01/07 04:15:39;;;;;;;;;;;11.70;99.90;;;;;;5090029;28;20007;-83
2024/01/07 04:18:06;;;;;;;;;;;11.70;99.90;;;;;;5091288;28;20025;-83
2024/01/07 04:20:32;;;;;;;;;;;11.60;99.90;;;;;;5090922;28;20382;-82
2024/01/07 04:22:58;;;;;;;;;;;11.50;99.90;;;;;;5091654;28;20003;-82
2024/01/07 04:25:24;;;;;;;;;;;11.50;99.90;;;;;;5091558;28;19950;-81
2024/01/07 04:27:50;;;;;;;;;;;11.40;99.90;;;;;;5089838;28;19915;-82
2024/01/07 04:30:16;;;;;;;;;;;11.40;99.90;;;;;;5089671;28;19908;-82
2024/01/07 04:32:41;;;;;;;;;;;11.50;99.90;;;;;;5089933;28;19908;-82
2024/01/07 04:35:08;;;;;;;;;;;11.30;99.90;;;;;;5091409;28;19908;-83
2024/01/07 04:37:34;;;;;;;;;;;11.40;99.90;;;;;;5091123;28;20060;-83
2024/01/07 04:40:00;;;;;;;;;;;11.40;99.90;;;;;;5089065;28;19999;-82
2024/01/07 04:42:28;;;;;;;;;;;11.40;99.90;;;;;;5091097;28;19912;-82
2024/01/07 04:44:54;;;;;;;;;;;11.50;99.90;;;;;;5090899;28;19908;-81
2024/01/07 04:47:35;;;;;;;;;;;11.50;99.90;;;;;;5091006;28;19935;-82
2024/01/07 04:50:01;;;;;;;;;;;11.50;99.90;;;;;;5091325;28;19935;-82
2024/01/07 04:52:27;;;;;;;;;;;11.50;99.90;;;;;;5091323;28;20345;-82
2024/01/07 04:54:53;;;;;;;;;;;11.50;99.90;;;;;;5089891;28;20026;-81
2024/01/07 04:57:19;;;;;;;;;;;11.50;99.90;;;;;;5091516;28;19922;-82
2024/01/07 04:59:45;;;;;;;;;;;11.50;99.90;;;;;;5090986;28;19947;-82
2024/01/07 05:02:12;;;;;;;;;;;11.50;99.90;;;;;;5091208;28;20340;-83
2024/01/07 05:04:38;;;;;;;;;;;11.50;99.90;;;;;;5089712;28;20267;-83
2024/01/07 05:07:04;;;;;;;;;;;11.50;99.90;;;;;;5091525;28;20426;-82
2024/01/07 05:09:30;;;;;;;;;;;11.50;99.90;;;;;;5091111;28;20224;-82
2024/01/07 05:11:56;;;;;;;;;;;11.50;99.90;;;;;;5091243;28;20329;-80
2024/01/07 05:14:22;;;;;;;;;;;11.50;99.90;;;;;;5091070;28;19961;-83
2024/01/07 05:16:48;;;;;;;;;;;11.50;99.90;;;;;;5089510;28;20255;-81
2024/01/07 05:19:14;;;;;;;;;;;11.50;99.90;;;;;;5089755;28;19915;-83
2024/01/07 05:21:40;;;;;;;;;;;11.60;99.90;;;;;;5091300;28;19928;-82
2024/01/07 05:24:06;;;;;;;;;;;11.60;99.90;;;;;;5091407;28;19908;-83
2024/01/07 05:26:38;;;;;;;;;;;11.60;99.90;;;;;;5089751;28;19909;-82
2024/01/07 05:29:05;;;;;;;;;;;11.60;99.90;;;;;;5091440;28;19946;-83
2024/01/07 05:31:31;;;;;;;;;;;11.70;99.90;;;;;;5091604;28;20007;-82
2024/01/07 05:33:58;;;;;;;;;;;11.70;99.90;;;;;;5091891;28;19928;-82
2024/01/07 05:36:24;;;;;;;;;;;11.80;99.90;;;;;;5090959;28;19995;-81
2024/01/07 05:38:50;;;;;;;;;;;11.70;99.90;;;;;;5090491;28;20041;-82
2024/01/07 05:41:16;;;;;;;;;;;11.70;99.90;;;;;;5090933;28;19916;-80
2024/01/07 05:43:41;;;;;;;;;;;11.80;99.90;;;;;;5090834;28;19938;-81
2024/01/07 05:46:07;;;;;;;;;;;11.70;99.90;;;;;;5090906;28;20282;-81
2024/01/07 05:48:44;;;;;;;;;;;11.70;99.90;;;;;;5091157;28;19952;-83
2024/01/07 05:51:10;;;;;;;;;;;11.60;99.90;;;;;;5092375;28;19912;-82
2024/01/07 05:53:36;;;;;;;;;;;11.50;99.90;;;;;;5093165;28;20020;-82
2024/01/07 05:56:02;;;;;;;;;;;11.50;99.90;;;;;;5093680;28;20006;-83
2024/01/07 05:58:29;;;;;;;;;;;11.40;99.90;;;;;;5093336;28;19916;-82
2024/01/07 06:00:54;;;;;;;;;;;11.40;99.90;;;;;;5094582;28;20280;-82
2024/01/07 06:03:20;;;;;;;;;;;11.50;99.90;;;;;;5094661;28;19908;-82
2024/01/07 06:05:46;;;;;;;;;;;11.50;99.90;;;;;;5094952;28;19908;-81
2024/01/07 06:08:12;;;;;;;;;;;11.50;99.90;;;;;;5094695;28;19908;-82
2024/01/07 06:10:39;;;;;;;;;;;11.50;99.90;;;;;;5093116;28;20105;-82
2024/01/07 06:13:06;;;;;;;;;;;11.60;99.90;;;;;;5094634;28;19931;-83
2024/01/07 06:15:31;;;;;;;;;;;11.50;99.90;;;;;;5094434;28;19964;-82
2024/01/07 06:17:57;;;;;;;;;;;11.50;99.90;;;;;;5094410;28;19920;-82
2024/01/07 06:20:23;;;;;;;;;;;11.50;99.90;;;;;;5094485;28;19999;-82
2024/01/07 06:22:50;;;;;;;;;;;11.50;99.90;;;;;;5093001;28;20260;-84
2024/01/07 06:25:16;;;;;;;;;;;11.60;99.90;;;;;;5092903;28;19958;-82
2024/01/07 06:27:42;;;;;;;;;;;11.60;99.90;;;;;;5094627;28;19927;-83
2024/01/07 06:30:08;;;;;;;;;;;11.60;99.90;;;;;;5094023;28;19908;-82
2024/01/07 06:32:35;;;;;;;;;;;11.60;99.90;;;;;;5093393;28;19981;-83
2024/01/07 06:35:03;;;;;;;;;;;11.50;99.90;;;;;;5095061;28;20016;-82
2024/01/07 06:37:29;;;;;;;;;;;11.30;99.90;;;;;;5094470;28;20348;-82
2024/01/07 06:39:55;;;;;;;;;;;11.20;99.90;;;;;;5094519;28;19959;-82
2024/01/07 06:42:22;;;;;;;;;;;11.20;99.90;;;;;;5093199;28;19919;-83
2024/01/07 06:44:47;;;;;;;;;;;11.20;99.90;;;;;;5093596;28;19920;-83
2024/01/07 06:47:13;;;;;;;;;;;11.20;99.90;;;;;;5093296;28;19931;-84
2024/01/07 06:49:40;;;;;;;;;;;11.20;99.90;;;;;;5091842;28;19920;-82
2024/01/07 06:52:05;;;;;;;;;;;11.20;99.90;;;;;;5093506;28;19973;-82
2024/01/07 06:54:31;;;;;;;;;;;11.20;99.90;;;;;;5092369;28;19908;-83
2024/01/07 06:56:57;;;;;;;;;;;11.20;99.90;;;;;;5092188;28;19912;-82
2024/01/07 06:59:23;;;;;;;;;;;11.10;99.90;;;;;;5093693;28;19919;-83
2024/01/07 07:01:49;;;;;;;;;;;11.00;99.90;;;;;;5093628;28;19948;-80
2024/01/07 07:04:14;;;;;;;;;;;11.10;99.90;;;;;;5092936;28;19932;-81
2024/01/07 07:06:40;;;;;;;;;;;11.10;99.90;;;;;;5094124;28;20343;-82
2024/01/07 07:09:06;;;;;;;;;;;11.10;99.90;;;;;;5093487;28;19908;-81
2024/01/07 07:11:32;;;;;;;;;;;11.20;99.90;;;;;;5093138;28;20280;-81
2024/01/07 07:13:58;;;;;;;;;;;11.20;99.90;;;;;;5093318;28;19908;-81
2024/01/07 07:16:25;;;;;;;;;;;11.30;99.90;;;;;;5091539;28;19919;-82
2024/01/07 07:18:51;;;;;;;;;;;11.40;99.90;;;;;;5091917;28;19916;-82
2024/01/07 07:21:17;;;;;;;;;;;11.40;99.90;;;;;;5093439;28;19972;-81
2024/01/07 07:23:43;;;;;;;;;;;11.50;99.90;;;;;;5093493;28;19961;-81
2024/01/07 07:26:09;;;;;;;;;;;11.50;99.90;;;;;;5091844;28;19915;-82
2024/01/07 07:28:35;;;;;;;;;;;11.60;99.90;;;;;;5092942;28;19908;-82
2024/01/07 07:31:01;;;;;;;;;;;11.60;99.90;;;;;;5091279;28;19908;-83
2024/01/07 07:33:27;;;;;;;;;;;11.70;99.90;;;;;;5091514;28;19908;-82
2024/01/07 07:35:53;;;;;;;;;;;11.70;99.90;;;;;;5092780;28;19908;-82
2024/01/07 07:38:18;;;;;;;;;;;11.60;99.90;;;;;;5092648;28;20276;-82
2024/01/07 07:40:50;;;;;;;;;;;11.70;99.90;;;;;;5093086;28;19908;-82
2024/01/07 07:43:15;;;;;;;;;;;11.70;99.90;;;;;;5092814;28;20410;-81
2024/01/07 07:45:41;;;;;;;;;;;11.70;99.90;;;;;;5092975;28;19908;-82
2024/01/07 07:48:08;;;;;;;;;;;11.70;99.90;;;;;;5092847;28;19912;-81
2024/01/07 07:50:33;;;;;;;;;;;11.50;99.90;;;;;;5092691;28;19980;-83
2024/01/07 07:52:59;;;;;;;;;;;11.30;99.90;;;;;;5093249;28;19931;-82
2024/01/07 07:55:26;;;;;;;;;;;11.40;99.90;;;;;;5091119;28;19995;-82
2024/01/07 07:57:52;;;;;;;;;;;11.50;99.90;;;;;;5092472;28;19924;-82
2024/01/07 08:00:18;;;;;;;;;;;11.30;99.90;;;;;;5092474;28;19908;-81
2024/01/07 08:02:44;;;;;;;;;;;11.40;99.90;;;;;;5092566;28;19977;-84
2024/01/07 08:05:11;;;;;;;;;;;11.30;99.90;;;;;;5092478;28;19955;-82
2024/01/07 08:07:37;;;;;;;;;;;11.40;99.90;;;;;;5092574;28;19912;-82
2024/01/07 08:10:03;;;;;;;;;;;11.40;99.90;;;;;;5090830;28;20244;-83
2024/01/07 08:12:29;;;;;;;;;;;11.30;99.90;;;;;;5091137;28;20006;-81
2024/01/07 08:14:54;;;;;;;;;;;11.50;99.90;;;;;;5090205;28;20000;-81
2024/01/07 08:17:20;;;;;;;;;;;11.60;99.90;;;;;;5090488;28;20274;-82
2024/01/07 08:19:46;;;;;;;;;;;11.50;99.90;;;;;;5090962;28;20007;-83
2024/01/07 08:22:12;;;;;;;;;;;11.60;99.90;;;;;;5093714;28;19908;-84
2024/01/07 08:24:38;;;;;;;;;;;11.80;99.90;;;;;;5093402;28;19908;-83
2024/01/07 08:27:04;;;;;;;;;;;12.00;99.90;;;;;;5092842;28;19931;-84
2024/01/07 08:29:30;;;;;;;;;;;12.30;99.90;;;;;;5090819;28;20358;-83
2024/01/07 08:31:56;;;;;;;;;;;12.40;99.90;;;;;;5092213;28;19908;-83
2024/01/07 08:34:21;;;;;;;;;;;12.60;99.90;;;;;;5090314;28;19931;-84
2024/01/07 08:36:47;;;;;;;;;;;12.80;99.90;;;;;;5090377;28;20008;-81
2024/01/07 08:39:16;;;;;;;;;;;12.90;99.90;;;;;;5091750;28;19920;-81
2024/01/07 08:41:42;;;;;;;;;;;13.10;99.90;;;;;;5091834;28;19914;-84
2024/01/07 08:44:10;;;;;;;;;;;13.00;99.90;;;;;;5091697;28;19908;-80
2024/01/07 08:46:36;;;;;;;;;;;12.80;99.90;;;;;;5091501;28;20445;-82
2024/01/07 08:49:02;;;;;;;;;;;12.60;99.90;;;;;;5091982;28;19912;-82
2024/01/07 08:51:29;;;;;;;;;;;12.60;99.90;;;;;;5090244;28;20220;-81
2024/01/07 08:53:55;;;;;;;;;;;12.70;99.90;;;;;;5090179;28;19914;-82
2024/01/07 08:56:21;;;;;;;;;;;12.70;99.90;;;;;;5090037;28;19908;-82
2024/01/07 08:58:46;;;;;;;;;;;12.80;99.90;;;;;;5091579;28;19916;-81
2024/01/07 09:01:14;;;;;;;;;;;12.80;99.90;;;;;;5089621;28;20328;-82
2024/01/07 09:03:42;;;;;;;;;;;13.00;99.90;;;;;;5089799;28;20238;-82
2024/01/07 09:06:07;;;;;;;;;;;13.20;99.90;;;;;;5091280;28;20325;-81
2024/01/07 09:08:34;;;;;;;;;;;13.20;99.90;;;;;;5091514;28;19943;-81
2024/01/07 09:11:01;;;;;;;;;;;13.00;99.90;;;;;;5089995;28;20003;-81
2024/01/07 09:13:27;;;;;;;;;;;12.90;99.90;;;;;;5091120;28;19912;-81
2024/01/07 09:15:53;;;;;;;;;;;12.70;99.90;;;;;;5089641;28;20078;-81
2024/01/07 09:18:19;;;;;;;;;;;12.60;99.90;;;;;;5091868;28;19923;-81
2024/01/07 09:20:44;;;;;;;;;;;12.60;99.90;;;;;;5092167;28;20003;-81
2024/01/07 09:23:10;;;;;;;;;;;12.50;99.90;;;;;;5090441;28;20360;-82
2024/01/07 09:25:36;;;;;;;;;;;12.50;99.90;;;;;;5091754;28;19908;-82
2024/01/07 09:28:02;;;;;;;;;;;12.60;99.90;;;;;;5095667;28;20356;-82
2024/01/07 09:30:28;;;;;;;;;;;12.70;99.90;;;;;;5094448;28;19918;-82
2024/01/07 09:32:54;;;;;;;;;;;12.90;99.90;;;;;;5094389;28;20011;-82
2024/01/07 09:35:20;;;;;;;;;;;13.00;99.90;;;;;;5095765;28;19908;-81
2024/01/07 09:37:47;;;;;;;;;;;13.10;99.90;;;;;;5095236;28;20469;-81
2024/01/07 09:40:18;;;;;;;;;;;13.30;99.90;;;;;;5093892;28;19920;-83
2024/01/07 09:42:44;;;;;;;;;;;13.10;99.90;;;;;;5095518;28;19945;-83
2024/01/07 09:45:12;;;;;;;;;;;12.60;99.90;;;;;;5093275;28;19949;-85
2024/01/07 09:47:40;;;;;;;;;;;12.00;99.90;;;;;;5095501;28;20234;-83
2024/01/07 09:50:06;;;;;;;;;;;11.80;99.90;;;;;;5092825;28;20348;-83
2024/01/07 09:52:33;;;;;;;;;;;11.50;99.90;;;;;;5092664;28;19919;-81
2024/01/07 09:55:02;;;;;;;;;;;11.40;99.90;;;;;;5095159;28;19908;-82
2024/01/07 09:57:28;;;;;;;;;;;11.20;99.90;;;;;;5094983;28;19920;-82
2024/01/07 09:59:54;;;;;;;;;;;11.20;99.90;;;;;;5095445;28;20361;-83
2024/01/07 10:02:23;;;;;;;;;;;11.10;99.90;;;;;;5094780;28;19908;-82
2024/01/07 10:04:50;;;;;;;;;;;11.20;99.90;;;;;;5094599;28;19944;-81
2024/01/07 10:07:16;;;;;;;;;;;11.20;99.90;;;;;;5094582;28;20401;-82
2024/01/07 10:09:43;;;;;;;;;;;11.10;99.90;;;;;;5093063;28;19996;-82
2024/01/07 10:12:09;;;;;;;;;;;11.00;99.90;;;;;;5093408;28;19920;-83
2024/01/07 10:14:35;;;;;;;;;;;11.00;99.90;;;;;;5095083;28;19912;-82
2024/01/07 10:17:01;;;;;;;;;;;11.10;99.90;;;;;;5094338;28;19939;-82
2024/01/07 10:19:26;;;;;;;;;;;11.10;99.90;;;;;;5094508;28;19923;-82
2024/01/07 10:22:02;;;;;;;;;;;11.20;99.90;;;;;;5092842;28;20416;-81
2024/01/07 10:24:48;;;;;;;;;;;11.20;99.90;;;;;;5094510;28;20002;-82
2024/01/07 10:27:14;;;;;;;;;;;11.40;99.90;;;;;;5093082;28;20272;-83
2024/01/07 10:29:40;;;;;;;;;;;11.50;99.90;;;;;;5094580;28;19968;-83
2024/01/07 10:32:06;;;;;;;;;;;11.70;99.90;;;;;;5092786;28;19922;-83
2024/01/07 10:34:33;;;;;;;;;;;11.90;99.90;;;;;;5094207;28;19910;-82
2024/01/07 10:37:00;;;;;;;;;;;12.00;99.90;;;;;;5094242;28;19909;-82
2024/01/07 10:39:26;;;;;;;;;;;12.20;99.90;;;;;;5093678;28;20429;-83
2024/01/07 10:41:57;;;;;;;;;;;12.40;99.90;;;;;;5094550;28;20007;-83
2024/01/07 10:44:27;;;;;;;;;;;12.70;99.90;;;;;;5092747;28;19984;-84
2024/01/07 10:46:56;;;;;;;;;;;12.80;99.90;;;;;;5093873;28;19957;-83
2024/01/07 10:49:23;;;;;;;;;;;12.80;99.90;;;;;;5092493;28;19909;-78
2024/01/07 10:51:56;;;;;;;;;;;12.90;99.90;;;;;;5092771;28;19919;-82
2024/01/07 10:54:24;;;;;;;;;;;13.00;99.90;;;;;;5092687;28;19976;-82
2024/01/07 10:56:55;;;;;;;;;;;13.00;99.90;;;;;;5093750;28;19916;-82
2024/01/07 10:59:23;;;;;;;;;;;12.80;99.90;;;;;;5093774;28;20321;-83
2024/01/07 11:01:50;;;;;;;;;;;12.60;99.90;;;;;;5093674;28;19951;-82
2024/01/07 11:04:37;;;;;;;;;;;12.40;99.90;;;;;;5093545;28;19915;-83
2024/01/07 11:07:23;;;;;;;;;;;12.40;99.90;;;;;;5092189;28;19915;-83
2024/01/07 11:10:17;;;;;;;;;;;12.20;99.90;;;;;;5093757;28;20003;-82
2024/01/07 11:12:43;;;;;;;;;;;12.10;99.90;;;;;;5090342;28;20010;-82
2024/01/07 11:15:09;;;;;;;;;;;12.10;99.90;;;;;;5095198;28;19908;-84
2024/01/07 11:17:35;;;;;;;;;;;12.10;99.90;;;;;;5092049;28;19930;-83
2024/01/07 11:20:01;;;;;;;;;;;12.10;99.90;;;;;;5093617;28;19912;-82
2024/01/07 11:22:27;;;;;;;;;;;12.10;99.90;;;;;;5093974;28;20385;-84
2024/01/07 11:24:58;;;;;;;;;;;12.10;99.90;;;;;;5094669;28;19961;-83
2024/01/07 11:27:24;;;;;;;;;;;12.10;99.90;;;;;;5093789;28;19908;-83
2024/01/07 11:29:56;;;;;;;;;;;12.20;99.90;;;;;;5093661;28;19958;-83
2024/01/07 11:32:24;;;;;;;;;;;12.30;99.90;;;;;;5091559;28;20227;-83
2024/01/07 11:34:53;;;;;;;;;;;12.30;99.90;;;;;;5093345;28;19939;-82
2024/01/07 11:37:20;;;;;;;;;;;12.30;99.90;;;;;;5091355;28;19912;-83
2024/01/07 11:39:47;;;;;;;;;;;12.40;99.90;;;;;;5093179;28;20259;-83
2024/01/07 11:42:15;;;;;;;;;;;12.50;99.90;;;;;;5092940;28;20404;-84
2024/01/07 11:44:48;;;;;;;;;;;12.50;99.90;;;;;;5092997;28;19908;-83
2024/01/07 11:47:15;;;;;;;;;;;12.40;99.90;;;;;;5091319;28;19914;-83
2024/01/07 11:49:41;;;;;;;;;;;12.20;99.90;;;;;;5090164;28;19919;-83
2024/01/07 11:52:08;;;;;;;;;;;12.10;99.90;;;;;;5093611;28;19908;-83
2024/01/07 11:54:35;;;;;;;;;;;11.90;99.90;;;;;;5092995;28;19994;-83
2024/01/07 11:57:01;;;;;;;;;;;11.70;99.90;;;;;;5092639;28;19962;-84
2024/01/07 11:59:29;;;;;;;;;;;11.50;99.90;;;;;;5092791;28;20316;-83
2024/01/07 12:01:55;;;;;;;;;;;11.60;99.90;;;;;;5090736;28;19908;-82
2024/01/07 12:04:20;;;;;;;;;;;11.70;99.90;;;;;;5081904;28;19915;-82
2024/01/07 12:06:47;;;;;;;;;;;11.70;99.90;;;;;;5073057;28;19965;-82
2024/01/07 12:09:13;;;;;;;;;;;11.70;99.90;;;;;;5073442;28;19908;-83
2024/01/07 12:11:41;;;;;;;;;;;11.80;99.90;;;;;;5070636;28;19959;-82
2024/01/07 12:14:09;;;;;;;;;;;11.90;99.90;;;;;;5071882;28;19922;-83
2024/01/07 12:16:35;;;;;;;;;;;11.90;99.90;;;;;;5070406;28;20235;-83
2024/01/07 12:19:02;;;;;;;;;;;11.90;99.90;;;;;;5070562;28;19916;-83
2024/01/07 12:21:29;;;;;;;;;;;11.90;99.90;;;;;;5070865;28;19965;-83
2024/01/07 12:23:56;;;;;;;;;;;12.10;99.90;;;;;;5072799;28;19912;-82
2024/01/07 12:26:26;;;;;;;;;;;12.20;99.90;;;;;;5070824;28;19908;-83
2024/01/07 12:28:57;;;;;;;;;;;12.30;99.90;;;;;;5070514;28;19912;-82
2024/01/07 12:31:23;;;;;;;;;;;12.40;99.90;;;;;;5070236;28;19913;-83
2024/01/07 12:33:49;;;;;;;;;;;12.60;99.90;;;;;;5078505;28;20003;-82
2024/01/07 12:36:15;;;;;;;;;;;12.80;99.90;;;;;;5074730;28;19912;-83
2024/01/07 12:38:41;;;;;;;;;;;12.90;99.90;;;;;;5091781;28;19927;-83
2024/01/07 12:41:07;;;;;;;;;;;12.90;99.90;;;;;;5090513;28;20003;-84
2024/01/07 12:43:33;;;;;;;;;;;12.80;99.90;;;;;;5090926;28;20379;-83
2024/01/07 12:46:04;;;;;;;;;;;12.80;99.90;;;;;;5090424;28;19909;-83
2024/01/07 12:48:30;;;;;;;;;;;12.80;99.90;;;;;;5090512;28;20105;-83
2024/01/07 12:50:56;;;;;;;;;;;12.90;99.90;;;;;;5092035;28;19908;-83
2024/01/07 12:53:22;;;;;;;;;;;13.00;99.90;;;;;;5090143;28;19949;-83
2024/01/07 12:55:48;;;;;;;;;;;13.10;99.90;;;;;;5091692;28;19966;-83
2024/01/07 12:58:14;;;;;;;;;;;13.20;99.90;;;;;;5091656;28;19989;-83
2024/01/07 13:00:41;;;;;;;;;;;13.30;99.90;;;;;;5089665;28;19966;-82
2024/01/07 13:03:08;;;;;;;;;;;13.40;99.90;;;;;;5089735;28;20373;-83
2024/01/07 13:05:34;;;;;;;;;;;13.30;99.90;;;;;;5071771;28;19908;-83
2024/01/07 13:08:00;;;;;;;;;;;13.20;99.90;;;;;;5069975;28;20327;-83
2024/01/07 13:10:27;;;;;;;;;;;12.90;99.90;;;;;;5070069;28;19908;-83
2024/01/07 13:12:53;;;;;;;;;;;12.80;99.90;;;;;;5069907;28;19909;-82
2024/01/07 13:15:19;;;;;;;;;;;12.60;99.90;;;;;;5069757;28;19914;-84
2024/01/07 13:17:45;;;;;;;;;;;12.70;99.90;;;;;;5070917;28;19916;-84
2024/01/07 13:20:13;;;;;;;;;;;12.80;99.90;;;;;;5069745;28;19916;-83
2024/01/07 13:22:39;;;;;;;;;;;12.90;99.90;;;;;;5071591;28;19916;-82
2024/01/07 13:25:05;;;;;;;;;;;12.90;99.90;;;;;;5070001;28;19989;-82
2024/01/07 13:27:31;;;;;;;;;;;12.90;99.90;;;;;;5071482;28;19908;-83
2024/01/07 13:29:57;;;;;;;;;;;12.80;99.90;;;;;;5069234;28;19931;-82
2024/01/07 13:32:23;;;;;;;;;;;12.70;99.90;;;;;;5069918;28;19935;-83
2024/01/07 13:34:48;;;;;;;;;;;12.50;99.90;;;;;;5084449;28;19941;-83
2024/01/07 13:37:14;;;;;;;;;;;12.50;99.90;;;;;;5088730;28;20046;-80
2024/01/07 13:39:40;;;;;;;;;;;12.40;99.90;;;;;;5088911;28;19928;-83
2024/01/07 13:42:06;;;;;;;;;;;12.40;99.90;;;;;;5090532;28;19995;-83
2024/01/07 13:44:34;;;;;;;;;;;12.40;99.90;;;;;;5090581;28;20000;-84
2024/01/07 13:47:01;;;;;;;;;;;12.30;99.90;;;;;;5088899;28;20015;-83
2024/01/07 13:49:27;;;;;;;;;;;12.30;99.90;;;;;;5089063;28;20428;-83
2024/01/07 13:51:55;;;;;;;;;;;12.20;99.90;;;;;;5091460;28;20241;-83
2024/01/07 13:54:21;;;;;;;;;;;12.20;99.90;;;;;;5089965;28;19939;-83
2024/01/07 13:56:47;;;;;;;;;;;12.30;99.90;;;;;;5089487;28;19931;-84
2024/01/07 13:59:13;;;;;;;;;;;12.40;99.90;;;;;;5090992;28;19916;-82
2024/01/07 14:01:42;;;;;;;;;;;12.50;99.90;;;;;;5091316;28;19963;-81
2024/01/07 14:04:08;;;;;;;;;;;12.40;99.90;;;;;;5091475;28;19988;-84
2024/01/07 14:06:34;;;;;;;;;;;12.40;99.90;;;;;;5091077;28;20340;-84
2024/01/07 14:09:00;;;;;;;;;;;12.40;99.90;;;;;;5089647;28;20041;-83
2024/01/07 14:11:27;;;;;;;;;;;12.40;99.90;;;;;;5089381;28;19977;-83
2024/01/07 14:13:54;;;;;;;;;;;12.60;99.90;;;;;;5091417;28;19908;-83